sensor_id;sensor_type;location;lat;lon;timestamp;P1;durP1;ratioP1;P2;durP2;ratioP2
31095;SDS011;17749;51.962;8.560;2023-08-12T05:00:36;26.85;;;19.55;;
31095;SDS011;17749;51.962;8.560;2023-08-12T05:03:03;34.60;;;20.48;;
31095;SDS011;17749;51.962;8.560;2023-08-12T05:05:31;33.40;;;19.90;;
31095;SDS011;17749;51.962;8.560;2023-08-12T05:07:58;30.35;;;19.08;;
31095;SDS011;17749;51.962;8.560;2023-08-12T05:10:25;31.38;;;19.25;;
31095;SDS011;17749;51.962;8.560;2023-08-12T05:12:53;36.17;;;22.92;;
31095;SDS011;17749;51.962;8.560;2023-08-12T05:15:21;40.28;;;22.88;;
31095;SDS011;17749;51.962;8.560;2023-08-12T05:17:48;35.78;;;23.13;;
31095;SDS011;17749;51.962;8.560;2023-08-12T05:20:19;39.22;;;22.45;;
31095;SDS011;17749;51.962;8.560;2023-08-12T05:22:46;36.10;;;22.75;;
31095;SDS011;17749;51.962;8.560;2023-08-12T05:25:13;36.22;;;21.60;;
31095;SDS011;17749;51.962;8.560;2023-08-12T05:27:40;38.47;;;23.30;;
31095;SDS011;17749;51.962;8.560;2023-08-12T05:30:08;36.33;;;22.60;;
31095;SDS011;17749;51.962;8.560;2023-08-12T05:32:35;31.85;;;20.98;;
31095;SDS011;17749;51.962;8.560;2023-08-12T05:35:02;36.95;;;24.65;;
31095;SDS011;17749;51.962;8.560;2023-08-12T05:37:29;32.90;;;20.95;;
31095;SDS011;17749;51.962;8.560;2023-08-12T05:39:56;27.88;;;18.15;;
31095;SDS011;17749;51.962;8.560;2023-08-12T05:42:23;32.92;;;23.27;;
31095;SDS011;17749;51.962;8.560;2023-08-12T05:44:50;31.50;;;20.73;;
31095;SDS011;17749;51.962;8.560;2023-08-12T05:47:17;31.30;;;19.48;;
31095;SDS011;17749;51.962;8.560;2023-08-12T05:49:44;35.45;;;20.60;;
31095;SDS011;17749;51.962;8.560;2023-08-12T05:52:11;33.83;;;22.38;;
31095;SDS011;17749;51.962;8.560;2023-08-12T05:54:39;30.48;;;21.75;;
31095;SDS011;17749;51.962;8.560;2023-08-12T05:57:05;27.80;;;19.95;;
31095;SDS011;17749;51.962;8.560;2023-08-12T05:59:33;35.92;;;23.67;;
31095;SDS011;17749;51.962;8.560;2023-08-12T06:01:59;35.45;;;23.40;;
31095;SDS011;17749;51.962;8.560;2023-08-12T06:04:26;40.80;;;24.02;;
31095;SDS011;17749;51.962;8.560;2023-08-12T06:06:53;32.90;;;20.55;;
31095;SDS011;17749;51.962;8.560;2023-08-12T06:09:21;33.15;;;21.70;;
31095;SDS011;17749;51.962;8.560;2023-08-12T06:11:48;25.67;;;18.10;;
31095;SDS011;17749;51.962;8.560;2023-08-12T06:14:15;34.22;;;21.45;;
31095;SDS011;17749;51.962;8.560;2023-08-12T06:16:42;39.53;;;22.58;;
31095;SDS011;17749;51.962;8.560;2023-08-12T06:19:09;33.92;;;21.95;;
31095;SDS011;17749;51.962;8.560;2023-08-12T06:21:39;31.30;;;20.80;;
31095;SDS011;17749;51.962;8.560;2023-08-12T06:24:06;34.22;;;22.75;;
31095;SDS011;17749;51.962;8.560;2023-08-12T06:26:33;29.85;;;19.85;;
31095;SDS011;17749;51.962;8.560;2023-08-12T06:29:00;28.98;;;19.02;;
31095;SDS011;17749;51.962;8.560;2023-08-12T06:31:31;30.40;;;20.10;;
31095;SDS011;17749;51.962;8.560;2023-08-12T06:33:58;25.35;;;17.70;;
31095;SDS011;17749;51.962;8.560;2023-08-12T06:36:26;31.75;;;19.55;;
31095;SDS011;17749;51.962;8.560;2023-08-12T06:38:53;27.73;;;18.30;;
31095;SDS011;17749;51.962;8.560;2023-08-12T06:41:20;26.20;;;18.70;;
31095;SDS011;17749;51.962;8.560;2023-08-12T06:43:47;23.52;;;16.80;;
31095;SDS011;17749;51.962;8.560;2023-08-12T06:46:14;22.75;;;16.02;;
31095;SDS011;17749;51.962;8.560;2023-08-12T06:48:41;25.35;;;15.57;;
31095;SDS011;17749;51.962;8.560;2023-08-12T06:51:08;21.33;;;14.35;;
31095;SDS011;17749;51.962;8.560;2023-08-12T06:53:39;16.77;;;11.85;;
31095;SDS011;17749;51.962;8.560;2023-08-12T06:56:06;22.15;;;15.13;;
31095;SDS011;17749;51.962;8.560;2023-08-12T06:58:33;18.23;;;12.60;;
31095;SDS011;17749;51.962;8.560;2023-08-12T07:01:00;21.75;;;14.30;;
31095;SDS011;17749;51.962;8.560;2023-08-12T07:03:27;17.73;;;12.52;;
31095;SDS011;17749;51.962;8.560;2023-08-12T07:05:54;19.15;;;13.73;;
31095;SDS011;17749;51.962;8.560;2023-08-12T07:08:21;18.58;;;13.57;;
31095;SDS011;17749;51.962;8.560;2023-08-12T07:10:48;17.85;;;12.32;;
31095;SDS011;17749;51.962;8.560;2023-08-12T07:13:15;19.75;;;12.73;;
31095;SDS011;17749;51.962;8.560;2023-08-12T07:15:43;15.82;;;11.90;;
31095;SDS011;17749;51.962;8.560;2023-08-12T07:18:10;17.83;;;12.18;;
31095;SDS011;17749;51.962;8.560;2023-08-12T07:20:37;18.17;;;13.55;;
31095;SDS011;17749;51.962;8.560;2023-08-12T07:23:04;19.10;;;12.25;;
31095;SDS011;17749;51.962;8.560;2023-08-12T07:25:31;16.00;;;11.73;;
31095;SDS011;17749;51.962;8.560;2023-08-12T07:27:58;16.95;;;11.32;;
31095;SDS011;17749;51.962;8.560;2023-08-12T07:30:25;16.77;;;11.93;;
31095;SDS011;17749;51.962;8.560;2023-08-12T07:32:52;15.13;;;11.13;;
31095;SDS011;17749;51.962;8.560;2023-08-12T07:35:19;20.77;;;12.50;;
31095;SDS011;17749;51.962;8.560;2023-08-12T07:37:46;12.32;;;9.80;;
31095;SDS011;17749;51.962;8.560;2023-08-12T07:40:13;17.48;;;13.00;;
31095;SDS011;17749;51.962;8.560;2023-08-12T07:42:41;17.73;;;12.25;;
31095;SDS011;17749;51.962;8.560;2023-08-12T07:45:08;15.52;;;12.05;;
31095;SDS011;17749;51.962;8.560;2023-08-12T07:47:35;21.10;;;13.73;;
31095;SDS011;17749;51.962;8.560;2023-08-12T07:50:06;14.50;;;11.77;;
31095;SDS011;17749;51.962;8.560;2023-08-12T07:52:33;17.20;;;11.75;;
31095;SDS011;17749;51.962;8.560;2023-08-12T07:55:01;16.48;;;11.82;;
31095;SDS011;17749;51.962;8.560;2023-08-12T07:57:28;19.38;;;12.57;;
31095;SDS011;17749;51.962;8.560;2023-08-12T07:59:55;15.30;;;12.15;;
31095;SDS011;17749;51.962;8.560;2023-08-12T08:02:22;18.77;;;12.45;;
31095;SDS011;17749;51.962;8.560;2023-08-12T08:04:49;20.10;;;14.80;;
31095;SDS011;17749;51.962;8.560;2023-08-12T08:07:16;17.45;;;11.75;;
31095;SDS011;17749;51.962;8.560;2023-08-12T08:09:43;16.13;;;11.32;;
31095;SDS011;17749;51.962;8.560;2023-08-12T08:12:11;17.60;;;12.25;;
31095;SDS011;17749;51.962;8.560;2023-08-12T08:14:39;19.85;;;13.05;;
31095;SDS011;17749;51.962;8.560;2023-08-12T08:17:06;16.13;;;11.07;;
31095;SDS011;17749;51.962;8.560;2023-08-12T08:19:33;15.30;;;12.25;;
31095;SDS011;17749;51.962;8.560;2023-08-12T08:22:00;19.95;;;13.30;;
31095;SDS011;17749;51.962;8.560;2023-08-12T08:24:27;19.95;;;14.05;;
31095;SDS011;17749;51.962;8.560;2023-08-12T08:26:54;16.80;;;12.98;;
31095;SDS011;17749;51.962;8.560;2023-08-12T08:29:21;22.00;;;15.02;;
31095;SDS011;17749;51.962;8.560;2023-08-12T08:31:48;18.88;;;14.23;;
31095;SDS011;17749;51.962;8.560;2023-08-12T08:34:15;15.70;;;12.32;;
31095;SDS011;17749;51.962;8.560;2023-08-12T08:36:42;18.02;;;13.25;;
31095;SDS011;17749;51.962;8.560;2023-08-12T08:39:09;23.73;;;14.55;;
31095;SDS011;17749;51.962;8.560;2023-08-12T08:41:37;21.83;;;14.65;;
31095;SDS011;17749;51.962;8.560;2023-08-12T08:44:07;17.70;;;12.73;;
31095;SDS011;17749;51.962;8.560;2023-08-12T08:46:35;18.03;;;13.50;;
31095;SDS011;17749;51.962;8.560;2023-08-12T08:49:02;16.25;;;11.77;;
31095;SDS011;17749;51.962;8.560;2023-08-12T08:51:31;19.77;;;12.52;;
31095;SDS011;17749;51.962;8.560;2023-08-12T08:53:58;17.80;;;14.10;;
31095;SDS011;17749;51.962;8.560;2023-08-12T08:56:30;17.15;;;12.07;;
31095;SDS011;17749;51.962;8.560;2023-08-12T08:59:00;20.90;;;14.95;;
31095;SDS011;17749;51.962;8.560;2023-08-12T09:01:28;18.90;;;13.50;;
31095;SDS011;17749;51.962;8.560;2023-08-12T09:03:55;19.90;;;14.07;;
31095;SDS011;17749;51.962;8.560;2023-08-12T09:06:25;19.57;;;13.63;;
31095;SDS011;17749;51.962;8.560;2023-08-12T09:08:52;24.50;;;15.52;;
31095;SDS011;17749;51.962;8.560;2023-08-12T09:11:20;17.85;;;14.07;;
31095;SDS011;17749;51.962;8.560;2023-08-12T09:13:48;17.33;;;13.27;;
31095;SDS011;17749;51.962;8.560;2023-08-12T09:16:15;17.15;;;12.85;;
31095;SDS011;17749;51.962;8.560;2023-08-12T09:18:42;18.38;;;15.18;;
31095;SDS011;17749;51.962;8.560;2023-08-12T09:21:11;18.52;;;14.63;;
31095;SDS011;17749;51.962;8.560;2023-08-12T09:23:39;18.42;;;12.50;;
31095;SDS011;17749;51.962;8.560;2023-08-12T09:26:12;16.60;;;13.13;;
31095;SDS011;17749;51.962;8.560;2023-08-12T09:28:41;19.00;;;13.73;;
31095;SDS011;17749;51.962;8.560;2023-08-12T09:31:28;13.15;;;10.30;;
31095;SDS011;17749;51.962;8.560;2023-08-12T09:34:00;15.02;;;11.25;;
31095;SDS011;17749;51.962;8.560;2023-08-12T09:36:31;11.40;;;9.35;;
31095;SDS011;17749;51.962;8.560;2023-08-12T09:38:58;8.73;;;7.82;;
31095;SDS011;17749;51.962;8.560;2023-08-12T09:41:28;8.20;;;7.03;;
31095;SDS011;17749;51.962;8.560;2023-08-12T09:43:55;9.52;;;7.43;;
31095;SDS011;17749;51.962;8.560;2023-08-12T09:46:26;8.18;;;6.47;;
31095;SDS011;17749;51.962;8.560;2023-08-12T09:48:53;8.25;;;6.68;;
31095;SDS011;17749;51.962;8.560;2023-08-12T09:51:19;8.20;;;5.43;;
31095;SDS011;17749;51.962;8.560;2023-08-12T09:53:50;5.78;;;5.03;;
31095;SDS011;17749;51.962;8.560;2023-08-12T09:56:18;7.55;;;5.43;;
31095;SDS011;17749;51.962;8.560;2023-08-12T09:58:49;9.57;;;5.72;;
31095;SDS011;17749;51.962;8.560;2023-08-12T10:01:19;6.68;;;5.18;;
31095;SDS011;17749;51.962;8.560;2023-08-12T10:03:50;7.25;;;5.03;;
31095;SDS011;17749;51.962;8.560;2023-08-12T10:06:18;7.50;;;5.72;;
31095;SDS011;17749;51.962;8.560;2023-08-12T10:08:46;6.78;;;4.80;;
31095;SDS011;17749;51.962;8.560;2023-08-12T10:11:14;6.47;;;4.93;;
31095;SDS011;17749;51.962;8.560;2023-08-12T10:13:42;7.45;;;4.10;;
31095;SDS011;17749;51.962;8.560;2023-08-12T10:16:09;5.43;;;4.00;;
31095;SDS011;17749;51.962;8.560;2023-08-12T10:18:38;7.55;;;4.07;;
31095;SDS011;17749;51.962;8.560;2023-08-12T10:21:08;5.35;;;4.40;;
31095;SDS011;17749;51.962;8.560;2023-08-12T10:23:37;6.63;;;3.60;;
31095;SDS011;17749;51.962;8.560;2023-08-12T10:26:07;6.00;;;4.10;;
31095;SDS011;17749;51.962;8.560;2023-08-12T10:28:35;4.07;;;3.42;;
31095;SDS011;17749;51.962;8.560;2023-08-12T10:31:04;5.03;;;2.80;;
31095;SDS011;17749;51.962;8.560;2023-08-12T10:33:36;4.68;;;3.45;;
31095;SDS011;17749;51.962;8.560;2023-08-12T10:36:04;3.67;;;3.00;;
31095;SDS011;17749;51.962;8.560;2023-08-12T10:38:32;5.35;;;3.05;;
31095;SDS011;17749;51.962;8.560;2023-08-12T10:43:52;3.28;;;2.53;;
31095;SDS011;17749;51.962;8.560;2023-08-12T10:46:26;4.30;;;2.30;;
31095;SDS011;17749;51.962;8.560;2023-08-12T10:49:03;3.55;;;2.50;;
31095;SDS011;17749;51.962;8.560;2023-08-12T11:02:17;2.88;;;2.42;;
31095;SDS011;17749;51.962;8.560;2023-08-12T11:04:48;3.05;;;2.00;;
31095;SDS011;17749;51.962;8.560;2023-08-12T11:07:17;3.00;;;2.30;;
31095;SDS011;17749;51.962;8.560;2023-08-12T11:12:16;2.28;;;1.83;;
31095;SDS011;17749;51.962;8.560;2023-08-12T11:14:47;2.63;;;2.00;;
31095;SDS011;17749;51.962;8.560;2023-08-12T11:17:40;3.22;;;1.60;;
31095;SDS011;17749;51.962;8.560;2023-08-12T11:20:10;1.92;;;1.50;;
31095;SDS011;17749;51.962;8.560;2023-08-12T11:22:39;2.28;;;1.60;;
31095;SDS011;17749;51.962;8.560;2023-08-12T11:25:08;2.22;;;1.30;;
31095;SDS011;17749;51.962;8.560;2023-08-12T11:30:04;1.52;;;1.25;;
31095;SDS011;17749;51.962;8.560;2023-08-12T11:32:32;4.65;;;1.65;;
31095;SDS011;17749;51.962;8.560;2023-08-12T11:34:59;4.22;;;1.83;;
31095;SDS011;17749;51.962;8.560;2023-08-12T11:37:26;1.65;;;1.17;;
31095;SDS011;17749;51.962;8.560;2023-08-12T11:39:53;1.67;;;1.13;;
31095;SDS011;17749;51.962;8.560;2023-08-12T11:42:21;1.30;;;1.00;;
31095;SDS011;17749;51.962;8.560;2023-08-12T11:44:48;1.50;;;0.95;;
31095;SDS011;17749;51.962;8.560;2023-08-12T11:47:15;1.52;;;1.33;;
31095;SDS011;17749;51.962;8.560;2023-08-12T11:49:42;3.28;;;1.20;;
31095;SDS011;17749;51.962;8.560;2023-08-12T11:52:09;1.42;;;1.02;;
31095;SDS011;17749;51.962;8.560;2023-08-12T11:54:39;1.00;;;0.90;;
31095;SDS011;17749;51.962;8.560;2023-08-12T11:57:06;1.45;;;1.25;;
31095;SDS011;17749;51.962;8.560;2023-08-12T11:59:33;1.65;;;1.10;;
31095;SDS011;17749;51.962;8.560;2023-08-12T12:02:01;1.60;;;1.00;;
31095;SDS011;17749;51.962;8.560;2023-08-12T12:04:32;1.63;;;1.20;;
31095;SDS011;17749;51.962;8.560;2023-08-12T12:06:59;2.38;;;1.17;;
31095;SDS011;17749;51.962;8.560;2023-08-12T12:09:26;1.15;;;0.95;;
31095;SDS011;17749;51.962;8.560;2023-08-12T12:11:56;1.48;;;1.10;;
31095;SDS011;17749;51.962;8.560;2023-08-12T12:14:24;1.85;;;1.13;;
31095;SDS011;17749;51.962;8.560;2023-08-12T12:16:51;1.63;;;1.52;;
31095;SDS011;17749;51.962;8.560;2023-08-12T12:19:22;1.17;;;1.00;;
31095;SDS011;17749;51.962;8.560;2023-08-12T12:21:50;1.52;;;1.00;;
31095;SDS011;17749;51.962;8.560;2023-08-12T12:26:47;3.90;;;1.77;;
31095;SDS011;17749;51.962;8.560;2023-08-12T12:29:14;2.00;;;1.23;;
31095;SDS011;17749;51.962;8.560;2023-08-12T12:31:41;2.20;;;1.17;;
31095;SDS011;17749;51.962;8.560;2023-08-12T12:34:08;1.15;;;1.05;;
31095;SDS011;17749;51.962;8.560;2023-08-12T12:36:39;1.13;;;0.80;;
31095;SDS011;17749;51.962;8.560;2023-08-12T12:39:06;2.55;;;1.10;;
31095;SDS011;17749;51.962;8.560;2023-08-12T12:41:34;1.70;;;1.00;;
31095;SDS011;17749;51.962;8.560;2023-08-12T12:44:01;1.05;;;0.95;;
31095;SDS011;17749;51.962;8.560;2023-08-12T12:46:29;2.08;;;1.00;;
31095;SDS011;17749;51.962;8.560;2023-08-12T12:48:56;1.40;;;0.90;;
31095;SDS011;17749;51.962;8.560;2023-08-12T12:51:23;1.65;;;1.00;;
31095;SDS011;17749;51.962;8.560;2023-08-12T12:53:50;2.38;;;1.10;;
31095;SDS011;17749;51.962;8.560;2023-08-12T12:56:17;2.28;;;0.93;;
31095;SDS011;17749;51.962;8.560;2023-08-12T12:58:44;1.60;;;1.25;;
31095;SDS011;17749;51.962;8.560;2023-08-12T13:01:11;1.67;;;0.98;;
31095;SDS011;17749;51.962;8.560;2023-08-12T13:03:38;2.15;;;1.23;;
31095;SDS011;17749;51.962;8.560;2023-08-12T13:06:06;1.70;;;0.90;;
31095;SDS011;17749;51.962;8.560;2023-08-12T13:08:33;1.10;;;0.80;;
31095;SDS011;17749;51.962;8.560;2023-08-12T13:11:00;2.65;;;1.10;;
31095;SDS011;17749;51.962;8.560;2023-08-12T13:13:27;1.83;;;1.20;;
31095;SDS011;17749;51.962;8.560;2023-08-12T13:15:54;1.20;;;1.08;;
31095;SDS011;17749;51.962;8.560;2023-08-12T13:18:21;1.23;;;0.95;;
31095;SDS011;17749;51.962;8.560;2023-08-12T13:20:48;2.38;;;1.23;;
31095;SDS011;17749;51.962;8.560;2023-08-12T13:23:15;1.75;;;1.13;;
31095;SDS011;17749;51.962;8.560;2023-08-12T13:25:42;2.05;;;1.10;;
31095;SDS011;17749;51.962;8.560;2023-08-12T13:28:09;2.17;;;1.27;;
31095;SDS011;17749;51.962;8.560;2023-08-12T13:30:36;1.88;;;1.40;;
31095;SDS011;17749;51.962;8.560;2023-08-12T13:33:03;2.38;;;1.60;;
31095;SDS011;17749;51.962;8.560;2023-08-12T13:35:31;2.08;;;1.45;;
31095;SDS011;17749;51.962;8.560;2023-08-12T13:37:58;2.17;;;1.60;;
31095;SDS011;17749;51.962;8.560;2023-08-12T13:40:25;3.80;;;1.80;;
31095;SDS011;17749;51.962;8.560;2023-08-12T13:42:53;1.67;;;1.25;;
31095;SDS011;17749;51.962;8.560;2023-08-12T13:45:20;1.77;;;1.50;;
31095;SDS011;17749;51.962;8.560;2023-08-12T13:47:47;1.38;;;1.27;;
31095;SDS011;17749;51.962;8.560;2023-08-12T13:50:14;1.08;;;0.88;;
31095;SDS011;17749;51.962;8.560;2023-08-12T13:52:41;1.75;;;1.20;;
31095;SDS011;17749;51.962;8.560;2023-08-12T13:55:08;2.17;;;1.30;;
31095;SDS011;17749;51.962;8.560;2023-08-12T13:57:36;2.65;;;1.52;;
31095;SDS011;17749;51.962;8.560;2023-08-12T14:00:03;1.98;;;1.33;;
31095;SDS011;17749;51.962;8.560;2023-08-12T14:02:42;2.45;;;1.98;;
31095;SDS011;17749;51.962;8.560;2023-08-12T14:05:10;2.60;;;1.90;;
31095;SDS011;17749;51.962;8.560;2023-08-12T14:07:37;2.78;;;2.13;;
31095;SDS011;17749;51.962;8.560;2023-08-12T14:10:05;4.05;;;2.20;;
31095;SDS011;17749;51.962;8.560;2023-08-12T14:12:32;3.75;;;2.58;;
31095;SDS011;17749;51.962;8.560;2023-08-12T14:14:59;3.70;;;2.50;;
31095;SDS011;17749;51.962;8.560;2023-08-12T14:17:26;3.03;;;2.05;;
31095;SDS011;17749;51.962;8.560;2023-08-12T14:19:53;4.35;;;2.03;;
31095;SDS011;17749;51.962;8.560;2023-08-12T14:22:21;3.80;;;1.95;;
31095;SDS011;17749;51.962;8.560;2023-08-12T14:24:48;2.75;;;2.13;;
31095;SDS011;17749;51.962;8.560;2023-08-12T14:27:15;2.78;;;1.80;;
31095;SDS011;17749;51.962;8.560;2023-08-12T14:29:44;3.38;;;2.22;;
31095;SDS011;17749;51.962;8.560;2023-08-12T14:32:12;3.13;;;2.10;;
31095;SDS011;17749;51.962;8.560;2023-08-12T14:34:39;3.40;;;2.17;;
31095;SDS011;17749;51.962;8.560;2023-08-12T14:37:06;3.80;;;2.60;;
31095;SDS011;17749;51.962;8.560;2023-08-12T14:39:34;4.38;;;2.60;;
31095;SDS011;17749;51.962;8.560;2023-08-12T14:42:01;4.55;;;2.60;;
31095;SDS011;17749;51.962;8.560;2023-08-12T14:44:30;3.38;;;2.72;;
31095;SDS011;17749;51.962;8.560;2023-08-12T14:47:02;3.58;;;2.35;;
31095;SDS011;17749;51.962;8.560;2023-08-12T14:49:30;2.88;;;2.03;;
31095;SDS011;17749;51.962;8.560;2023-08-12T14:51:57;4.60;;;2.03;;
31095;SDS011;17749;51.962;8.560;2023-08-12T14:54:24;7.82;;;3.05;;
31095;SDS011;17749;51.962;8.560;2023-08-12T14:56:51;8.13;;;2.80;;
31095;SDS011;17749;51.962;8.560;2023-08-12T14:59:18;3.35;;;1.83;;
31095;SDS011;17749;51.962;8.560;2023-08-12T15:01:45;1.75;;;1.45;;
31095;SDS011;17749;51.962;8.560;2023-08-12T15:04:12;3.15;;;1.60;;
31095;SDS011;17749;51.962;8.560;2023-08-12T15:06:39;2.20;;;1.05;;
31095;SDS011;17749;51.962;8.560;2023-08-12T15:09:06;1.42;;;1.02;;
31095;SDS011;17749;51.962;8.560;2023-08-12T15:11:33;0.90;;;0.70;;
31095;SDS011;17749;51.962;8.560;2023-08-12T15:14:00;1.83;;;1.15;;
31095;SDS011;17749;51.962;8.560;2023-08-12T15:16:27;2.80;;;1.30;;
31095;SDS011;17749;51.962;8.560;2023-08-12T15:18:54;2.05;;;1.00;;
31095;SDS011;17749;51.962;8.560;2023-08-12T15:21:21;2.00;;;1.10;;
31095;SDS011;17749;51.962;8.560;2023-08-12T15:23:47;2.88;;;1.85;;
31095;SDS011;17749;51.962;8.560;2023-08-12T15:26:14;2.75;;;1.90;;
31095;SDS011;17749;51.962;8.560;2023-08-12T15:28:41;7.63;;;3.70;;
31095;SDS011;17749;51.962;8.560;2023-08-12T15:31:08;5.50;;;3.80;;
31095;SDS011;17749;51.962;8.560;2023-08-12T15:33:37;7.07;;;3.85;;
31095;SDS011;17749;51.962;8.560;2023-08-12T15:36:04;12.63;;;4.38;;
31095;SDS011;17749;51.962;8.560;2023-08-12T15:38:31;6.88;;;4.60;;
31095;SDS011;17749;51.962;8.560;2023-08-12T15:40:58;10.23;;;4.38;;
31095;SDS011;17749;51.962;8.560;2023-08-12T15:43:25;4.97;;;3.38;;
31095;SDS011;17749;51.962;8.560;2023-08-12T15:45:52;6.10;;;3.22;;
31095;SDS011;17749;51.962;8.560;2023-08-12T15:48:19;5.55;;;3.80;;
31095;SDS011;17749;51.962;8.560;2023-08-12T15:50:46;4.50;;;3.38;;
31095;SDS011;17749;51.962;8.560;2023-08-12T15:53:13;4.88;;;2.92;;
31095;SDS011;17749;51.962;8.560;2023-08-12T15:55:41;4.00;;;2.95;;
31095;SDS011;17749;51.962;8.560;2023-08-12T15:58:07;4.03;;;3.03;;
31095;SDS011;17749;51.962;8.560;2023-08-12T16:00:34;4.00;;;2.13;;
31095;SDS011;17749;51.962;8.560;2023-08-12T16:03:01;4.90;;;2.40;;
31095;SDS011;17749;51.962;8.560;2023-08-12T16:05:29;3.03;;;1.95;;
31095;SDS011;17749;51.962;8.560;2023-08-12T16:07:56;3.67;;;2.20;;
31095;SDS011;17749;51.962;8.560;2023-08-12T16:10:23;6.75;;;3.15;;
31095;SDS011;17749;51.962;8.560;2023-08-12T16:12:49;5.68;;;2.70;;
31095;SDS011;17749;51.962;8.560;2023-08-12T16:15:16;5.43;;;2.75;;
31095;SDS011;17749;51.962;8.560;2023-08-12T16:17:43;5.97;;;3.20;;
31095;SDS011;17749;51.962;8.560;2023-08-12T16:20:10;6.47;;;2.58;;
31095;SDS011;17749;51.962;8.560;2023-08-12T16:22:38;4.50;;;2.20;;
31095;SDS011;17749;51.962;8.560;2023-08-12T16:25:06;2.70;;;1.70;;
31095;SDS011;17749;51.962;8.560;2023-08-12T16:27:33;2.28;;;1.42;;
31095;SDS011;17749;51.962;8.560;2023-08-12T16:30:00;2.83;;;1.77;;
31095;SDS011;17749;51.962;8.560;2023-08-12T16:32:27;2.72;;;1.33;;
31095;SDS011;17749;51.962;8.560;2023-08-12T16:34:54;9.88;;;4.95;;
31095;SDS011;17749;51.962;8.560;2023-08-12T16:37:21;4.28;;;2.78;;
31095;SDS011;17749;51.962;8.560;2023-08-12T16:39:50;2.10;;;1.70;;
31095;SDS011;17749;51.962;8.560;2023-08-12T16:42:17;3.42;;;1.52;;
31095;SDS011;17749;51.962;8.560;2023-08-12T16:44:47;2.10;;;1.35;;
31095;SDS011;17749;51.962;8.560;2023-08-12T16:47:14;1.77;;;1.30;;
31095;SDS011;17749;51.962;8.560;2023-08-12T16:49:41;2.80;;;0.90;;
31095;SDS011;17749;51.962;8.560;2023-08-12T16:52:08;1.85;;;1.20;;
31095;SDS011;17749;51.962;8.560;2023-08-12T16:54:35;1.67;;;1.05;;
31095;SDS011;17749;51.962;8.560;2023-08-12T16:57:02;2.58;;;1.92;;
31095;SDS011;17749;51.962;8.560;2023-08-12T16:59:29;4.05;;;2.03;;
31095;SDS011;17749;51.962;8.560;2023-08-12T17:01:56;3.28;;;1.33;;
31095;SDS011;17749;51.962;8.560;2023-08-12T17:04:23;2.95;;;1.45;;
31095;SDS011;17749;51.962;8.560;2023-08-12T17:06:50;2.17;;;1.58;;
31095;SDS011;17749;51.962;8.560;2023-08-12T17:09:18;4.03;;;1.23;;
31095;SDS011;17749;51.962;8.560;2023-08-12T17:11:45;2.17;;;1.45;;
31095;SDS011;17749;51.962;8.560;2023-08-12T17:14:12;2.38;;;1.45;;
31095;SDS011;17749;51.962;8.560;2023-08-12T17:16:39;1.73;;;1.10;;
31095;SDS011;17749;51.962;8.560;2023-08-12T17:19:06;1.85;;;1.13;;
31095;SDS011;17749;51.962;8.560;2023-08-12T17:21:33;1.98;;;1.20;;
31095;SDS011;17749;51.962;8.560;2023-08-12T17:24:00;3.50;;;1.50;;
31095;SDS011;17749;51.962;8.560;2023-08-12T17:26:27;2.40;;;1.45;;
31095;SDS011;17749;51.962;8.560;2023-08-12T17:28:54;6.47;;;1.52;;
31095;SDS011;17749;51.962;8.560;2023-08-12T17:31:22;2.05;;;1.35;;
31095;SDS011;17749;51.962;8.560;2023-08-12T17:33:50;3.15;;;1.55;;
31095;SDS011;17749;51.962;8.560;2023-08-12T17:36:17;2.58;;;1.77;;
31095;SDS011;17749;51.962;8.560;2023-08-12T17:38:44;6.78;;;1.73;;
31095;SDS011;17749;51.962;8.560;2023-08-12T17:41:11;2.72;;;1.52;;
31095;SDS011;17749;51.962;8.560;2023-08-12T17:43:38;4.65;;;2.00;;
31095;SDS011;17749;51.962;8.560;2023-08-12T17:46:05;2.28;;;1.63;;
31095;SDS011;17749;51.962;8.560;2023-08-12T17:48:33;3.35;;;2.38;;
31095;SDS011;17749;51.962;8.560;2023-08-12T17:51:01;3.35;;;2.20;;
31095;SDS011;17749;51.962;8.560;2023-08-12T17:53:28;5.13;;;2.00;;
31095;SDS011;17749;51.962;8.560;2023-08-12T17:55:55;2.75;;;1.80;;
31095;SDS011;17749;51.962;8.560;2023-08-12T17:58:23;6.63;;;2.80;;
31095;SDS011;17749;51.962;8.560;2023-08-12T18:00:50;2.58;;;1.95;;
31095;SDS011;17749;51.962;8.560;2023-08-12T18:03:17;3.97;;;2.85;;
31095;SDS011;17749;51.962;8.560;2023-08-12T18:05:44;3.38;;;2.30;;
31095;SDS011;17749;51.962;8.560;2023-08-12T18:08:11;4.13;;;2.92;;
31095;SDS011;17749;51.962;8.560;2023-08-12T18:10:38;5.22;;;3.60;;
31095;SDS011;17749;51.962;8.560;2023-08-12T18:13:06;5.25;;;3.88;;
31095;SDS011;17749;51.962;8.560;2023-08-12T18:15:33;4.45;;;2.95;;
31095;SDS011;17749;51.962;8.560;2023-08-12T18:18:00;6.32;;;3.50;;
31095;SDS011;17749;51.962;8.560;2023-08-12T18:20:28;7.00;;;4.03;;
31095;SDS011;17749;51.962;8.560;2023-08-12T18:22:55;4.60;;;3.40;;
31095;SDS011;17749;51.962;8.560;2023-08-12T18:25:23;6.40;;;3.70;;
31095;SDS011;17749;51.962;8.560;2023-08-12T18:27:50;5.43;;;3.58;;
31095;SDS011;17749;51.962;8.560;2023-08-12T18:30:17;3.72;;;3.13;;
31095;SDS011;17749;51.962;8.560;2023-08-12T18:32:44;4.18;;;3.40;;
31095;SDS011;17749;51.962;8.560;2023-08-12T18:35:11;5.05;;;3.40;;
31095;SDS011;17749;51.962;8.560;2023-08-12T18:37:38;6.75;;;3.28;;
31095;SDS011;17749;51.962;8.560;2023-08-12T18:40:05;7.15;;;4.38;;
31095;SDS011;17749;51.962;8.560;2023-08-12T18:42:35;4.95;;;3.40;;
31095;SDS011;17749;51.962;8.560;2023-08-12T18:45:03;4.55;;;3.67;;
31095;SDS011;17749;51.962;8.560;2023-08-12T18:47:30;4.85;;;3.53;;
31095;SDS011;17749;51.962;8.560;2023-08-12T18:49:59;3.65;;;2.95;;
31095;SDS011;17749;51.962;8.560;2023-08-12T18:52:26;6.60;;;4.57;;
31095;SDS011;17749;51.962;8.560;2023-08-12T18:54:53;6.32;;;3.97;;
31095;SDS011;17749;51.962;8.560;2023-08-12T18:57:20;6.35;;;4.38;;
31095;SDS011;17749;51.962;8.560;2023-08-12T18:59:47;5.82;;;4.68;;
31095;SDS011;17749;51.962;8.560;2023-08-12T19:02:15;8.48;;;5.45;;
31095;SDS011;17749;51.962;8.560;2023-08-12T19:04:42;7.80;;;5.40;;
31095;SDS011;17749;51.962;8.560;2023-08-12T19:07:09;8.95;;;6.10;;
31095;SDS011;17749;51.962;8.560;2023-08-12T19:09:36;9.57;;;7.10;;
31095;SDS011;17749;51.962;8.560;2023-08-12T19:12:03;10.35;;;6.05;;
31095;SDS011;17749;51.962;8.560;2023-08-12T19:14:30;8.75;;;6.25;;
31095;SDS011;17749;51.962;8.560;2023-08-12T19:16:57;9.95;;;6.25;;
31095;SDS011;17749;51.962;8.560;2023-08-12T19:19:24;8.45;;;5.47;;
31095;SDS011;17749;51.962;8.560;2023-08-12T19:21:51;7.53;;;5.25;;
31095;SDS011;17749;51.962;8.560;2023-08-12T19:24:18;7.00;;;5.25;;
31095;SDS011;17749;51.962;8.560;2023-08-12T19:26:45;6.82;;;4.78;;
31095;SDS011;17749;51.962;8.560;2023-08-12T19:29:12;8.70;;;5.20;;
31095;SDS011;17749;51.962;8.560;2023-08-12T19:31:39;5.22;;;4.03;;
31095;SDS011;17749;51.962;8.560;2023-08-12T19:34:06;4.43;;;3.38;;
31095;SDS011;17749;51.962;8.560;2023-08-12T19:36:33;4.65;;;3.90;;
31095;SDS011;17749;51.962;8.560;2023-08-12T19:39:00;6.28;;;3.10;;
31095;SDS011;17749;51.962;8.560;2023-08-12T19:41:28;5.10;;;4.00;;
31095;SDS011;17749;51.962;8.560;2023-08-12T19:43:56;5.78;;;3.30;;
31095;SDS011;17749;51.962;8.560;2023-08-12T19:46:25;4.43;;;3.28;;
31095;SDS011;17749;51.962;8.560;2023-08-12T19:48:52;5.30;;;3.45;;
31095;SDS011;17749;51.962;8.560;2023-08-12T19:51:20;5.13;;;3.65;;
31095;SDS011;17749;51.962;8.560;2023-08-12T19:53:47;4.78;;;3.08;;
31095;SDS011;17749;51.962;8.560;2023-08-12T19:56:14;4.00;;;3.03;;
31095;SDS011;17749;51.962;8.560;2023-08-12T19:58:41;4.60;;;3.08;;
31095;SDS011;17749;51.962;8.560;2023-08-12T20:01:08;4.10;;;3.35;;